Stations météo

Publicité
Leuchtturm Kiel, Allemagne (10044): Température de l'air & dewpoint: 15.06.2018 18:00:00 - 21.06.2018 18:00:00 (CEST)Leuchtturm Kiel, Allemagne (10044): Vitesse du vent & gusts: 15.06.2018 18:00:00 - 21.06.2018 18:00:00 (CEST)Leuchtturm Kiel, Allemagne (10044): Direction du vent: 15.06.2018 18:00:00 - 21.06.2018 18:00:00 (CEST)Leuchtturm Kiel, Allemagne (10044): reduced air pressure: 15.06.2018 18:00:00 - 21.06.2018 18:00:00 (CEST)Leuchtturm Kiel, Allemagne (10044): Ensoleillement: 15.06.2018 18:00:00 - 21.06.2018 18:00:00 (CEST)
Date & Time tt [°C] td [°C] ff [km/h] ff [knt] fx [km/h] fx [knt] dd ppp [hPa] sd [min]
21.06.2018 18:00:00 - - - - - - - - -
21.06.2018 17:00:00 12,1 8,6 47 25 - - WSW 1011,9 18
21.06.2018 16:00:00 11,0 8,8 54 29 65 35 WSW 1011,1 0
21.06.2018 15:00:00 10,8 8,1 50 27 61 33 WNW 1010,6 0
21.06.2018 14:00:00 11,5 9,9 36 19 - - W 1009,7 0
21.06.2018 13:00:00 11,0 9,5 29 16 54 29 WNW 1009,5 18
21.06.2018 12:00:00 12,7 10,2 25 14 - - W 1009,1 0
21.06.2018 11:00:00 13,2 9,1 22 12 - - WSW 1009,5 0
21.06.2018 10:00:00 13,3 9,4 22 12 - - W 1009,5 0
21.06.2018 09:00:00 13,2 8,6 22 12 - - WNW 1010,2 0
21.06.2018 08:00:00 13,3 9,4 25 14 - - WNW 1010,2 6
21.06.2018 07:00:00 13,4 9,3 32 18 - - WNW 1010,5 0
21.06.2018 06:00:00 13,8 8,5 36 19 47 25 WNW 1010,7 0
21.06.2018 05:00:00 14,8 13,2 36 19 - - WNW 1010,8 0
21.06.2018 04:00:00 15,8 15,0 22 12 - - WSW 1011,2 0
21.06.2018 03:00:00 16,4 15,2 29 16 - - WSW 1012,0 0
21.06.2018 02:00:00 16,4 15,6 32 18 - - WSW 1012,6 0
21.06.2018 01:00:00 17,2 15,3 29 16 - - SW 1012,9 0
21.06.2018 00:00:00 17,8 15,0 29 16 - - WSW 1013,6 0
20.06.2018 23:00:00 18,6 15,2 29 16 - - WSW 1014,0 0
20.06.2018 22:00:00 19,2 15,4 40 21 47 25 WSW 1014,3 0
20.06.2018 21:00:00 19,0 15,8 40 21 47 25 W 1014,4 18
20.06.2018 20:00:00 19,6 16,3 36 19 - - W 1014,7 18
20.06.2018 19:00:00 21,5 16,6 36 19 50 27 WSW 1014,7 42
20.06.2018 18:00:00 21,9 15,9 47 25 50 27 W 1015,2 30
20.06.2018 17:00:00 23,2 14,9 36 19 - - WSW 1015,6 36
20.06.2018 16:00:00 23,6 14,6 40 21 50 27 SW 1015,9 36
20.06.2018 15:00:00 22,8 14,6 40 21 47 25 SW 1016,5 30
20.06.2018 14:00:00 22,5 14,6 40 21 - - SW 1017,1 18
20.06.2018 13:00:00 21,9 15,0 36 19 50 27 SW 1017,8 60
20.06.2018 12:00:00 20,7 14,8 43 23 50 27 SSW 1018,3 60
20.06.2018 11:00:00 19,4 14,6 40 21 - - SSW 1018,8 60
20.06.2018 10:00:00 18,1 14,4 43 23 50 27 SSW 1018,9 24
20.06.2018 09:00:00 16,8 13,5 36 19 - - SSW 1019,6 0
20.06.2018 08:00:00 15,9 12,0 36 19 - - S 1019,8 0
20.06.2018 07:00:00 14,3 11,4 29 16 - - S 1020,4 6
20.06.2018 06:00:00 13,9 11,6 25 14 - - SSW 1020,9 0
20.06.2018 05:00:00 13,5 11,5 22 12 - - S 1021,1 0
20.06.2018 04:00:00 13,5 11,1 18 10 - - SSW 1021,5 0
20.06.2018 03:00:00 13,3 10,6 18 10 - - SW 1021,8 0
20.06.2018 02:00:00 13,4 10,9 22 12 - - WSW 1022,1 0
20.06.2018 01:00:00 13,8 10,5 22 12 - - WSW 1022,2 0
20.06.2018 00:00:00 14,5 9,8 25 14 - - W 1022,2 0
19.06.2018 23:00:00 14,9 10,7 29 16 - - WSW 1022,3 0
19.06.2018 22:00:00 15,4 10,1 29 16 - - WSW 1021,8 30
19.06.2018 21:00:00 15,8 9,1 36 19 - - W 1021,5 60
19.06.2018 20:00:00 16,3 8,5 40 21 - - WSW 1021,3 60
19.06.2018 19:00:00 16,7 8,1 40 21 47 25 W 1021,0 60
19.06.2018 18:00:00 17,2 8,3 43 23 47 25 W 1020,8 60
19.06.2018 17:00:00 17,6 9,7 40 21 - - W 1020,5 60
19.06.2018 16:00:00 17,8 10,1 43 23 50 27 W 1020,1 60
19.06.2018 15:00:00 18,0 11,4 40 21 50 27 W 1019,9 60
19.06.2018 14:00:00 18,3 13,0 40 21 - - W 1019,2 60
19.06.2018 13:00:00 17,5 14,1 32 18 - - W 1018,9 60
19.06.2018 12:00:00 17,0 14,5 32 18 - - W 1018,8 36
19.06.2018 11:00:00 17,1 14,0 40 21 - - WSW 1018,3 12
19.06.2018 10:00:00 16,9 14,7 32 18 50 27 WSW 1017,7 18
19.06.2018 09:00:00 16,9 14,7 32 18 - - WSW 1017,2 0
19.06.2018 08:00:00 16,3 14,4 36 19 - - SW 1016,7 18
19.06.2018 07:00:00 15,7 14,3 32 18 - - SSW 1016,3 0
19.06.2018 06:00:00 15,5 14,2 29 16 - - SW 1016,6 0
19.06.2018 05:00:00 15,3 14,3 29 16 - - SSW 1016,2 0
19.06.2018 04:00:00 15,4 14,1 22 12 - - SW 1016,6 0
19.06.2018 03:00:00 15,8 13,6 32 18 47 25 WSW 1016,7 0
19.06.2018 02:00:00 15,9 14,1 32 18 - - WSW 1016,8 0
19.06.2018 01:00:00 16,0 14,5 25 14 - - SW 1016,9 0
19.06.2018 00:00:00 16,2 14,8 25 14 - - SW 1017,0 0
18.06.2018 23:00:00 16,4 15,1 25 14 - - SW 1016,8 0
18.06.2018 22:00:00 16,9 14,9 25 14 - - SSW 1016,5 0
18.06.2018 21:00:00 17,0 15,8 25 14 - - SSW 1016,5 24
18.06.2018 20:00:00 17,1 15,3 25 14 - - SW 1016,7 18
18.06.2018 19:00:00 16,7 15,3 29 16 - - SSW 1016,6 0
18.06.2018 18:00:00 16,2 15,6 22 12 - - SSW 1017,0 0
18.06.2018 17:00:00 16,5 15,1 29 16 - - SSW 1017,3 0
18.06.2018 16:00:00 17,1 14,0 29 16 - - SSW 1017,5 0
18.06.2018 15:00:00 16,7 13,2 36 19 47 25 SW 1017,5 12
18.06.2018 14:00:00 17,4 12,5 36 19 - - SSW 1017,2 18
18.06.2018 13:00:00 17,2 11,5 25 14 54 29 SW 1017,6 0
18.06.2018 12:00:00 17,8 10,7 29 16 - - SSW 1017,3 18
18.06.2018 11:00:00 16,8 11,1 25 14 - - SSW 1017,4 12
18.06.2018 10:00:00 16,3 10,8 29 16 - - SSW 1017,5 30
18.06.2018 09:00:00 15,7 11,4 25 14 - - SSW 1017,5 60
18.06.2018 08:00:00 14,9 12,2 22 12 - - SSW 1017,7 60
18.06.2018 07:00:00 14,7 12,4 29 16 - - SSW 1017,8 0
18.06.2018 06:00:00 14,2 11,8 29 16 - - SSW 1017,8 0
18.06.2018 05:00:00 14,5 11,8 22 12 - - SSW 1017,6 0
18.06.2018 04:00:00 14,9 11,9 22 12 - - SSW 1017,4 0
18.06.2018 03:00:00 14,4 11,5 18 10 - - SW 1017,8 0
18.06.2018 02:00:00 14,7 11,5 18 10 - - SW 1017,7 0
18.06.2018 01:00:00 15,1 11,4 18 10 - - SW 1017,4 0
18.06.2018 00:00:00 15,5 11,2 18 10 - - SW 1017,2 0
17.06.2018 23:00:00 16,0 10,6 18 10 - - SW 1017,0 0
17.06.2018 22:00:00 16,5 9,6 25 14 - - WSW 1016,7 18
17.06.2018 21:00:00 17,0 9,4 29 16 - - W 1016,3 12
17.06.2018 20:00:00 17,5 7,4 29 16 - - WSW 1015,9 36
17.06.2018 19:00:00 17,7 8,3 32 18 - - WSW 1015,6 0
17.06.2018 18:00:00 17,7 9,7 32 18 - - WSW 1015,4 60
17.06.2018 17:00:00 18,0 8,9 32 18 - - WSW 1015,0 54
17.06.2018 16:00:00 17,3 11,0 36 19 - - W 1014,5 0
17.06.2018 15:00:00 16,8 13,0 25 14 - - SW 1014,2 30
17.06.2018 14:00:00 17,7 11,6 36 19 - - SW 1013,7 18
17.06.2018 13:00:00 17,7 11,9 36 19 50 27 SW 1013,3 42
17.06.2018 12:00:00 17,5 11,5 36 19 - - SW 1013,1 12
17.06.2018 11:00:00 17,3 11,0 32 18 - - SW 1012,9 36
17.06.2018 10:00:00 16,5 11,0 32 18 - - SW 1012,9 42
17.06.2018 09:00:00 16,4 12,1 32 18 - - SW 1012,7 60
17.06.2018 08:00:00 16,0 13,4 29 16 - - SSW 1012,7 30
17.06.2018 07:00:00 15,8 13,7 18 10 - - SSW 1012,8 0
17.06.2018 06:00:00 15,6 13,0 18 10 - - SSW 1012,8 0
17.06.2018 05:00:00 16,0 13,1 18 10 - - WSW 1012,9 0
17.06.2018 04:00:00 15,9 13,2 18 10 - - W 1013,0 0
17.06.2018 03:00:00 15,7 14,0 29 16 - - W 1013,0 0
17.06.2018 02:00:00 17,6 16,0 14 8 - - SW 1013,0 0
17.06.2018 01:00:00 18,4 14,9 7 4 - - S 1012,5 0
17.06.2018 00:00:00 18,5 14,5 7 4 - - SSW 1013,0 0
16.06.2018 23:00:00 18,6 13,6 7 4 - - S 1013,3 0
16.06.2018 22:00:00 18,8 13,5 7 4 - - SE 1013,4 0
16.06.2018 21:00:00 18,4 13,6 4 2 - - NNE 1013,0 0
16.06.2018 20:00:00 18,8 13,2 11 6 - - WNW 1013,0 0
16.06.2018 19:00:00 18,2 14,0 14 8 58 31 SE 1012,4 0
16.06.2018 18:00:00 18,8 14,4 11 6 - - NE 1012,4 24
16.06.2018 17:00:00 19,3 13,5 18 10 - - SSE 1012,9 18
16.06.2018 16:00:00 19,0 15,3 29 16 - - E 1013,2 0
16.06.2018 15:00:00 18,4 15,4 29 16 50 27 E 1013,4 0
16.06.2018 14:00:00 17,7 15,5 32 18 - - ESE 1014,4 18
16.06.2018 13:00:00 18,1 15,3 36 19 - - E 1014,2 60
16.06.2018 12:00:00 18,0 14,5 29 16 - - E 1015,0 12
16.06.2018 11:00:00 17,5 13,5 32 18 - - E 1015,3 0
16.06.2018 10:00:00 17,2 12,8 36 19 - - ESE 1015,6 12
16.06.2018 09:00:00 17,4 12,0 32 18 - - ESE 1015,9 36
16.06.2018 08:00:00 17,4 12,3 32 18 - - E 1016,0 0
16.06.2018 07:00:00 17,4 11,7 29 16 - - E 1016,2 0
16.06.2018 06:00:00 17,3 10,0 11 6 - - NE 1016,8 0
16.06.2018 05:00:00 17,3 7,6 11 6 - - SSE 1017,3 0
16.06.2018 04:00:00 17,3 9,9 14 8 - - SE 1017,3 0
16.06.2018 03:00:00 17,2 8,2 18 10 - - ESE 1017,1 0
16.06.2018 02:00:00 17,0 9,1 14 8 - - SE 1017,3 0
16.06.2018 01:00:00 16,7 9,8 18 10 - - SSE 1017,3 0
16.06.2018 00:00:00 17,3 10,5 14 8 - - SE 1017,4 0
15.06.2018 23:00:00 17,7 9,1 14 8 - - SE 1017,5 0
15.06.2018 22:00:00 17,6 9,7 14 8 - - ESE 1017,5 0
15.06.2018 21:00:00 17,6 10,6 11 6 - - ESE 1017,5 54
15.06.2018 20:00:00 17,7 9,6 11 6 - - E 1017,6 60
15.06.2018 19:00:00 17,6 9,4 11 6 - - E 1017,6 48
15.06.2018 18:00:00 17,5 10,3 11 6 - - E 1017,7 18

tt = Température de l'air
td = dewpoint
ff = Vitesse du vent
fx = gusts
dd = Direction du vent
ppp = reduced air pressure
sd = Ensoleillement

stations d'obs. à proximité